Moyer Aviation Incorporated

Pocono Mountains Airport

188 Airport Rd. Tobyhanna, PA 18466 

P: 570-839-7161
800-321-5890
F: 570-839-7162

Weather

Weather

Pocono Weather

KMPO 220553Z AUTO 00000KT 10SM CLR 05/04 A3037 RMK AO2 SLP286 T00500039 10100 20044 58004 PWINO $

Allentown Weather

KABE 220551Z AUTO 01003KT 10SM CLR 08/06 A3036 RMK AO2 SLP279 T00780056 10150 20072 58002

Wilkes-Barre Weather

KAVP 220554Z 11004KT 10SM CLR 10/06 A3035 RMK AO2 SLP275 T01000056 10161 20094 57004


* required field

Contact Us